Time;durP1;ratioP1;P1;durP2;ratioP2;P2;SDS_P1;SDS_P2;PMS_P1;PMS_P2;Temp;Humidity;BMP_temperature;BMP_pressure;BME280_temperature;BME280_humidity;BME280_pressure;Samples;Min_cycle;Max_cycle;Signal;HPM_P1;HPM_P2
2023/08/03 00:00:15;;;;;;;3.33;1.37;;;21.60;91.30;;;;;;943333;148;27357;-71
2023/08/03 00:02:41;;;;;;;2.95;1.47;;;21.60;91.10;;;;;;942358;148;27441;-71
2023/08/03 00:05:08;;;;;;;6.03;1.85;;;21.60;91.00;;;;;;942950;148;27368;-71
2023/08/03 00:07:35;;;;;;;3.55;1.60;;;21.70;90.70;;;;;;943215;148;27279;-72
2023/08/03 00:10:01;;;;;;;4.97;1.95;;;21.70;90.40;;;;;;943446;148;27378;-72
2023/08/03 00:12:28;;;;;;;2.90;1.75;;;21.70;90.10;;;;;;943009;148;27349;-72
2023/08/03 00:14:54;;;;;;;5.10;1.95;;;21.70;90.20;;;;;;943306;148;27461;-71
2023/08/03 00:17:21;;;;;;;5.28;1.95;;;21.80;90.10;;;;;;943100;148;27463;-72
2023/08/03 00:19:48;;;;;;;5.90;1.75;;;21.80;90.00;;;;;;942810;148;27370;-71
2023/08/03 00:22:14;;;;;;;4.55;1.45;;;21.80;89.30;;;;;;943227;148;27306;-72
2023/08/03 00:24:41;;;;;;;3.33;1.45;;;21.80;88.40;;;;;;942956;148;27459;-71
2023/08/03 00:27:07;;;;;;;1.70;1.30;;;21.80;88.80;;;;;;943465;149;27442;-71
2023/08/03 00:29:34;;;;;;;2.05;1.20;;;21.90;88.10;;;;;;943164;148;27323;-71
2023/08/03 00:32:01;;;;;;;4.87;1.40;;;21.90;87.80;;;;;;943287;148;27258;-71
2023/08/03 00:34:27;;;;;;;2.67;1.32;;;21.90;87.00;;;;;;942970;148;27367;-72
2023/08/03 00:36:54;;;;;;;4.78;2.25;;;21.90;86.50;;;;;;942224;149;27350;-71
2023/08/03 00:39:20;;;;;;;3.62;1.20;;;22.00;86.40;;;;;;943038;148;27419;-71
2023/08/03 00:41:47;;;;;;;2.40;1.32;;;21.90;86.00;;;;;;943073;148;27333;-72
2023/08/03 00:44:13;;;;;;;3.87;1.52;;;22.00;85.40;;;;;;943250;148;27322;-72
2023/08/03 00:46:40;;;;;;;3.85;1.40;;;22.00;84.50;;;;;;943422;148;27431;-71
2023/08/03 00:49:07;;;;;;;2.95;1.40;;;22.00;84.80;;;;;;943150;147;27357;-72
2023/08/03 00:51:33;;;;;;;2.85;1.25;;;22.00;84.30;;;;;;942635;148;27404;-71
2023/08/03 00:54:00;;;;;;;1.57;1.12;;;22.00;83.90;;;;;;943251;148;27338;-72
2023/08/03 00:56:26;;;;;;;3.08;1.17;;;22.10;83.40;;;;;;943061;148;27445;-72
2023/08/03 00:58:53;;;;;;;4.20;1.85;;;22.10;82.60;;;;;;943366;148;27910;-72
2023/08/03 01:01:20;;;;;;;1.42;1.10;;;22.10;82.30;;;;;;943070;148;28315;-71
2023/08/03 01:03:46;;;;;;;2.95;1.30;;;22.10;82.40;;;;;;943019;148;27789;-71
2023/08/03 01:06:13;;;;;;;1.20;0.88;;;22.10;82.00;;;;;;942848;148;27308;-72
2023/08/03 01:08:39;;;;;;;2.83;1.12;;;22.10;81.70;;;;;;942668;148;27411;-71
2023/08/03 01:11:06;;;;;;;2.72;1.12;;;22.20;81.30;;;;;;943398;149;27455;-72
2023/08/03 01:13:33;;;;;;;3.10;1.22;;;22.20;81.20;;;;;;942771;148;27265;-72
2023/08/03 01:16:00;;;;;;;5.33;2.00;;;22.10;80.70;;;;;;943313;148;27330;-72
2023/08/03 01:18:26;;;;;;;3.22;1.15;;;22.10;80.60;;;;;;943317;148;27350;-71
2023/08/03 01:20:52;;;;;;;4.28;1.20;;;22.10;80.40;;;;;;942742;148;27342;-71
2023/08/03 01:23:19;;;;;;;2.45;1.07;;;22.10;80.30;;;;;;942720;149;27258;-71
2023/08/03 01:25:46;;;;;;;3.10;1.25;;;22.20;80.30;;;;;;943253;148;27326;-71
2023/08/03 01:28:12;;;;;;;2.40;1.17;;;22.20;80.10;;;;;;942875;148;27388;-71
2023/08/03 01:30:39;;;;;;;2.55;0.88;;;22.20;79.70;;;;;;943401;148;27338;-71
2023/08/03 01:33:05;;;;;;;1.77;0.95;;;22.20;79.20;;;;;;942839;148;27314;-72
2023/08/03 01:35:32;;;;;;;2.77;0.90;;;22.10;79.20;;;;;;942653;148;27383;-72
2023/08/03 01:37:58;;;;;;;4.17;1.10;;;22.10;78.70;;;;;;942801;148;27357;-72
2023/08/03 01:40:25;;;;;;;2.75;0.90;;;22.10;78.90;;;;;;945328;148;27408;-71
2023/08/03 01:42:52;;;;;;;1.65;1.02;;;22.10;78.90;;;;;;947244;149;27321;-71
2023/08/03 01:45:18;;;;;;;2.83;0.80;;;22.10;78.80;;;;;;947357;148;27329;-71
2023/08/03 01:47:45;;;;;;;2.17;0.85;;;22.10;78.90;;;;;;947308;149;27426;-71
2023/08/03 01:50:11;;;;;;;3.60;0.80;;;22.10;78.70;;;;;;946456;149;27457;-72
2023/08/03 01:52:38;;;;;;;2.67;0.90;;;22.10;78.70;;;;;;946741;148;27364;-71
2023/08/03 01:55:05;;;;;;;1.25;0.50;;;22.00;78.70;;;;;;947222;148;27285;-71
2023/08/03 01:57:31;;;;;;;2.30;0.90;;;22.00;78.90;;;;;;947020;151;27262;-71
2023/08/03 01:59:58;;;;;;;4.62;0.98;;;22.00;79.80;;;;;;946819;148;27344;-71
2023/08/03 02:02:24;;;;;;;1.55;0.65;;;22.00;80.00;;;;;;947155;149;27356;-71
2023/08/03 02:04:51;;;;;;;1.20;0.80;;;22.00;80.00;;;;;;947026;149;27322;-71
2023/08/03 02:07:18;;;;;;;1.65;0.72;;;21.90;80.40;;;;;;946843;149;27278;-71
2023/08/03 02:09:44;;;;;;;1.25;0.95;;;21.80;80.80;;;;;;946909;148;27363;-72
2023/08/03 02:12:11;;;;;;;3.55;1.10;;;21.80;81.60;;;;;;947415;149;27356;-71
2023/08/03 02:14:37;;;;;;;1.92;0.90;;;21.70;82.00;;;;;;946898;149;27466;-72
2023/08/03 02:17:04;;;;;;;1.55;0.85;;;21.60;82.50;;;;;;947406;149;27323;-71
2023/08/03 02:19:30;;;;;;;1.85;1.20;;;21.50;83.50;;;;;;946854;149;27341;-71
2023/08/03 02:21:57;;;;;;;1.00;0.50;;;21.40;84.70;;;;;;947652;148;27429;-75
2023/08/03 02:24:24;;;;;;;3.70;1.17;;;21.20;85.30;;;;;;947260;149;27458;-75
2023/08/03 02:26:50;;;;;;;0.95;0.85;;;21.10;85.80;;;;;;946962;149;27397;-75
2023/08/03 02:29:17;;;;;;;1.67;0.78;;;20.90;86.60;;;;;;946949;151;27273;-75
2023/08/03 02:31:43;;;;;;;3.10;0.90;;;20.80;87.90;;;;;;946821;149;27351;-76
2023/08/03 02:34:10;;;;;;;2.42;1.02;;;20.60;88.90;;;;;;947450;148;27477;-75
2023/08/03 02:36:37;;;;;;;2.80;1.17;;;20.50;90.00;;;;;;946870;149;27333;-75
2023/08/03 02:39:03;;;;;;;4.55;1.62;;;20.40;90.40;;;;;;946276;148;27409;-75
2023/08/03 02:41:31;;;;;;;1.60;1.45;;;20.30;90.80;;;;;;946926;148;27390;-75
2023/08/03 02:43:56;;;;;;;1.57;0.80;;;20.20;91.20;;;;;;946892;149;27359;-75
2023/08/03 02:46:23;;;;;;;1.67;0.85;;;20.20;91.70;;;;;;947009;149;27431;-75
2023/08/03 02:48:50;;;;;;;1.95;0.75;;;20.20;92.30;;;;;;946811;148;27359;-75
2023/08/03 02:51:16;;;;;;;2.25;0.95;;;20.10;92.50;;;;;;947135;148;27333;-75
2023/08/03 02:53:43;;;;;;;1.45;0.60;;;20.10;92.80;;;;;;947299;151;27363;-72
2023/08/03 02:56:09;;;;;;;3.27;1.10;;;20.00;92.80;;;;;;947061;148;27341;-71
2023/08/03 02:58:36;;;;;;;1.80;0.72;;;20.00;93.20;;;;;;946124;149;27430;-71
2023/08/03 03:01:04;;;;;;;0.82;0.70;;;19.90;93.20;;;;;;946739;148;27376;-71
2023/08/03 03:03:29;;;;;;;3.67;0.95;;;20.00;93.50;;;;;;946550;148;27352;-71
2023/08/03 03:05:56;;;;;;;2.87;0.85;;;19.90;93.80;;;;;;946533;149;27347;-71
2023/08/03 03:08:22;;;;;;;3.10;0.98;;;19.90;93.80;;;;;;947275;148;27320;-71
2023/08/03 03:10:49;;;;;;;1.55;0.68;;;19.90;94.00;;;;;;947025;149;27344;-72
2023/08/03 03:13:15;;;;;;;1.32;1.05;;;19.90;94.10;;;;;;947028;149;27369;-71
2023/08/03 03:15:42;;;;;;;1.57;0.60;;;19.90;94.10;;;;;;947279;148;27367;-71
2023/08/03 03:18:09;;;;;;;1.57;0.93;;;20.00;94.20;;;;;;947024;149;27365;-71
2023/08/03 03:20:35;;;;;;;2.33;0.85;;;19.90;94.20;;;;;;946952;148;27310;-71
2023/08/03 03:23:02;;;;;;;1.98;1.07;;;20.00;94.10;;;;;;947547;149;27364;-71
2023/08/03 03:25:28;;;;;;;1.87;0.82;;;20.00;94.10;;;;;;947213;149;27845;-70
2023/08/03 03:27:55;;;;;;;2.10;0.85;;;20.00;94.00;;;;;;946689;148;27413;-71
2023/08/03 03:30:22;;;;;;;4.05;1.15;;;20.00;94.00;;;;;;946746;148;27296;-72
2023/08/03 03:32:48;;;;;;;1.52;0.80;;;20.00;93.90;;;;;;947580;148;27301;-71
2023/08/03 03:35:15;;;;;;;2.30;1.00;;;20.10;93.90;;;;;;947061;149;27396;-71
2023/08/03 03:37:41;;;;;;;3.72;1.22;;;20.10;93.70;;;;;;947016;151;27437;-71
2023/08/03 03:40:08;;;;;;;2.72;0.78;;;20.10;93.70;;;;;;947100;148;27373;-71
2023/08/03 03:42:35;;;;;;;2.25;1.55;;;20.10;93.60;;;;;;946925;148;27400;-71
2023/08/03 03:45:01;;;;;;;1.02;0.57;;;20.10;93.40;;;;;;947182;149;27466;-71
2023/08/03 03:47:28;;;;;;;1.57;0.78;;;20.10;93.20;;;;;;946262;149;27367;-71
2023/08/03 03:49:54;;;;;;;2.10;0.78;;;20.10;93.30;;;;;;946970;149;27474;-71
2023/08/03 03:52:21;;;;;;;1.65;0.78;;;20.10;93.20;;;;;;946679;149;27325;-71
2023/08/03 03:54:48;;;;;;;2.20;0.80;;;20.10;93.10;;;;;;947055;148;27402;-71
2023/08/03 03:57:14;;;;;;;1.98;1.00;;;20.00;93.00;;;;;;947000;149;27356;-72
2023/08/03 03:59:41;;;;;;;2.25;0.90;;;20.00;93.10;;;;;;946754;149;27368;-71
2023/08/03 04:02:07;;;;;;;6.95;1.20;;;20.00;93.00;;;;;;947042;149;27340;-72
2023/08/03 04:04:34;;;;;;;2.02;0.90;;;19.90;93.00;;;;;;946593;148;27365;-71
2023/08/03 04:07:00;;;;;;;2.80;1.47;;;19.90;93.00;;;;;;947237;149;27312;-71
2023/08/03 04:09:27;;;;;;;2.83;1.02;;;19.90;93.00;;;;;;947009;149;27380;-71
2023/08/03 04:11:54;;;;;;;1.65;1.12;;;19.90;93.00;;;;;;947038;149;27460;-71
2023/08/03 04:14:20;;;;;;;1.85;0.80;;;19.90;92.90;;;;;;946409;149;27337;-71
2023/08/03 04:16:47;;;;;;;3.55;1.75;;;19.90;92.90;;;;;;947106;149;27459;-71
2023/08/03 04:19:13;;;;;;;2.10;1.05;;;19.90;92.90;;;;;;947778;148;27442;-71
2023/08/03 04:21:40;;;;;;;1.00;0.78;;;19.90;92.80;;;;;;947205;149;27368;-71
2023/08/03 04:24:07;;;;;;;3.12;1.32;;;19.90;92.80;;;;;;946887;148;27317;-71
2023/08/03 04:26:33;;;;;;;1.02;0.88;;;19.90;92.80;;;;;;946923;149;27328;-71
2023/08/03 04:29:00;;;;;;;1.62;1.00;;;19.90;92.90;;;;;;946907;151;27483;-71
2023/08/03 04:31:27;;;;;;;1.65;0.70;;;19.90;93.00;;;;;;947441;149;27372;-71
2023/08/03 04:33:53;;;;;;;1.45;0.60;;;20.00;92.90;;;;;;946282;148;27283;-71
2023/08/03 04:36:20;;;;;;;2.62;0.80;;;20.00;92.80;;;;;;947137;149;27327;-72
2023/08/03 04:38:46;;;;;;;1.10;0.57;;;20.00;92.80;;;;;;947060;151;27329;-72
2023/08/03 04:41:14;;;;;;;1.98;0.82;;;20.00;92.80;;;;;;946844;148;27367;-72
2023/08/03 04:43:42;;;;;;;0.53;0.42;;;20.00;92.50;;;;;;943006;148;27838;-72
2023/08/03 04:46:06;;;;;;;1.15;0.60;;;20.00;92.50;;;;;;943511;148;27361;-71
2023/08/03 04:48:33;;;;;;;0.75;0.62;;;20.00;92.50;;;;;;943116;148;27263;-71
2023/08/03 04:50:59;;;;;;;1.57;0.60;;;20.10;92.50;;;;;;943787;149;27394;-71
2023/08/03 04:53:26;;;;;;;1.07;0.75;;;20.10;92.40;;;;;;942608;148;27380;-72
2023/08/03 04:55:52;;;;;;;1.70;0.70;;;20.10;92.30;;;;;;943319;148;27412;-71
2023/08/03 04:58:19;;;;;;;1.87;0.82;;;20.10;92.20;;;;;;942904;148;27376;-72
2023/08/03 05:00:45;;;;;;;1.62;0.68;;;20.10;92.10;;;;;;943287;148;27361;-71
2023/08/03 05:03:12;;;;;;;2.20;0.75;;;20.20;92.20;;;;;;943086;148;27349;-71
2023/08/03 05:05:39;;;;;;;1.98;1.05;;;20.20;92.20;;;;;;942680;148;27263;-72
2023/08/03 05:08:05;;;;;;;1.02;0.78;;;20.20;92.20;;;;;;943204;148;27407;-71
2023/08/03 05:10:32;;;;;;;1.98;0.85;;;20.20;92.10;;;;;;943146;148;27446;-71
2023/08/03 05:12:58;;;;;;;2.15;0.95;;;20.20;92.10;;;;;;943833;148;27346;-71
2023/08/03 05:15:25;;;;;;;1.90;0.98;;;20.20;92.10;;;;;;942832;148;27349;-72
2023/08/03 05:17:52;;;;;;;2.12;0.90;;;20.20;92.10;;;;;;943049;148;27334;-71
2023/08/03 05:20:18;;;;;;;0.93;0.70;;;20.20;92.00;;;;;;942782;148;27365;-71
2023/08/03 05:22:45;;;;;;;1.77;1.07;;;20.20;92.30;;;;;;943137;148;27373;-71
2023/08/03 05:25:11;;;;;;;2.05;0.80;;;20.20;92.30;;;;;;942790;148;27270;-71
2023/08/03 05:27:38;;;;;;;1.40;0.78;;;20.20;92.30;;;;;;942765;148;27329;-71
2023/08/03 05:30:05;;;;;;;1.77;0.90;;;20.20;92.20;;;;;;943216;148;27337;-71
2023/08/03 05:32:31;;;;;;;3.00;1.00;;;20.20;92.20;;;;;;943038;148;27414;-72
2023/08/03 05:34:58;;;;;;;2.52;0.80;;;20.20;92.30;;;;;;943539;148;27956;-71
2023/08/03 05:37:24;;;;;;;1.95;0.80;;;20.20;92.30;;;;;;943176;149;27418;-72
2023/08/03 05:39:51;;;;;;;2.47;0.78;;;20.20;92.20;;;;;;943319;148;27371;-72
2023/08/03 05:42:18;;;;;;;1.47;1.05;;;20.20;92.20;;;;;;944420;148;27550;-72
2023/08/03 05:44:44;;;;;;;2.65;1.10;;;20.20;92.10;;;;;;946812;148;27360;-71
2023/08/03 05:47:11;;;;;;;15.38;1.27;;;20.30;92.00;;;;;;946569;149;27355;-72
2023/08/03 05:49:37;;;;;;;1.22;0.70;;;20.30;92.00;;;;;;946169;148;27360;-71
2023/08/03 05:52:04;;;;;;;1.10;0.98;;;20.30;92.10;;;;;;947189;151;27342;-71
2023/08/03 05:54:31;;;;;;;0.85;0.75;;;20.30;92.10;;;;;;946923;148;27394;-71
2023/08/03 05:56:57;;;;;;;1.45;0.90;;;20.30;91.90;;;;;;946792;148;27349;-72
2023/08/03 05:59:24;;;;;;;1.25;0.72;;;20.30;91.80;;;;;;946931;149;27380;-71
2023/08/03 06:01:50;;;;;;;0.70;0.70;;;20.30;91.80;;;;;;946901;149;27437;-71
2023/08/03 06:04:17;;;;;;;2.15;0.90;;;20.30;91.60;;;;;;946219;149;27274;-72
2023/08/03 06:06:44;;;;;;;1.42;0.70;;;20.30;91.60;;;;;;946493;148;27497;-71
2023/08/03 06:09:11;;;;;;;1.32;0.65;;;20.30;91.60;;;;;;947109;149;27365;-71
2023/08/03 06:11:37;;;;;;;0.98;0.78;;;20.30;91.60;;;;;;946950;149;27488;-71
2023/08/03 06:14:03;;;;;;;1.57;0.78;;;20.30;91.70;;;;;;946162;148;27372;-71
2023/08/03 06:16:30;;;;;;;2.02;0.93;;;20.30;91.80;;;;;;946733;149;27333;-72
2023/08/03 06:18:58;;;;;;;0.88;0.50;;;20.30;91.70;;;;;;946928;151;27363;-72
2023/08/03 06:21:23;;;;;;;3.05;1.72;;;20.30;91.70;;;;;;946312;148;27376;-72
2023/08/03 06:23:50;;;;;;;1.22;0.82;;;20.30;92.00;;;;;;946985;148;27308;-72
2023/08/03 06:26:16;;;;;;;2.60;1.00;;;20.30;91.70;;;;;;946739;148;27381;-72
2023/08/03 06:28:43;;;;;;;1.42;0.90;;;20.40;91.80;;;;;;946640;148;27411;-72
2023/08/03 06:31:12;;;;;;;1.20;0.80;;;20.40;91.80;;;;;;945860;149;27371;-72
2023/08/03 06:33:39;;;;;;;2.75;0.90;;;20.40;91.70;;;;;;945611;149;27347;-72
2023/08/03 06:36:05;;;;;;;2.12;1.10;;;20.40;91.70;;;;;;946580;148;27348;-72
2023/08/03 06:38:34;;;;;;;1.82;0.90;;;20.40;91.60;;;;;;946893;149;27412;-75
2023/08/03 06:41:01;;;;;;;3.12;0.80;;;20.50;91.60;;;;;;946377;149;27334;-75
2023/08/03 06:43:27;;;;;;;2.35;0.80;;;20.50;91.60;;;;;;944966;149;27318;-75
2023/08/03 06:45:54;;;;;;;1.72;0.72;;;20.50;91.50;;;;;;943277;148;27339;-75
2023/08/03 06:48:21;;;;;;;2.30;1.07;;;20.60;91.50;;;;;;942310;148;27349;-75
2023/08/03 06:50:47;;;;;;;1.72;0.72;;;20.60;91.60;;;;;;943550;148;27298;-75
2023/08/03 06:53:14;;;;;;;1.98;1.00;;;20.60;91.40;;;;;;942648;148;27469;-75
2023/08/03 06:55:40;;;;;;;3.37;1.07;;;20.70;91.40;;;;;;943090;148;27453;-75
2023/08/03 06:58:07;;;;;;;3.60;0.98;;;20.80;91.40;;;;;;942816;148;27336;-75
2023/08/03 07:00:34;;;;;;;3.25;0.90;;;20.80;91.20;;;;;;943180;148;27333;-75
2023/08/03 07:03:00;;;;;;;1.32;0.70;;;20.80;91.10;;;;;;943271;148;27333;-75
2023/08/03 07:05:27;;;;;;;1.72;0.85;;;20.90;90.70;;;;;;942590;148;27388;-75
2023/08/03 07:07:53;;;;;;;2.37;0.90;;;21.00;90.60;;;;;;942264;148;27375;-76
2023/08/03 07:10:20;;;;;;;2.08;0.80;;;21.00;90.40;;;;;;942964;148;27342;-75
2023/08/03 07:12:47;;;;;;;3.30;0.78;;;21.00;90.20;;;;;;943617;148;27335;-75
2023/08/03 07:15:13;;;;;;;1.22;0.80;;;21.10;90.00;;;;;;943528;148;27357;-76
2023/08/03 07:17:40;;;;;;;3.85;1.00;;;21.10;89.60;;;;;;942831;148;27354;-76
2023/08/03 07:20:08;;;;;;;2.08;1.07;;;21.10;89.30;;;;;;942551;148;27297;-75
2023/08/03 07:22:33;;;;;;;1.80;0.85;;;21.20;88.90;;;;;;942564;149;27325;-75
2023/08/03 07:25:00;;;;;;;1.55;0.80;;;21.20;88.70;;;;;;942358;148;27351;-75
2023/08/03 07:27:26;;;;;;;2.45;0.93;;;21.20;88.50;;;;;;943010;148;27451;-75
2023/08/03 07:29:53;;;;;;;2.50;0.80;;;21.20;88.40;;;;;;942930;148;27368;-75
2023/08/03 07:32:19;;;;;;;1.12;0.80;;;21.20;88.00;;;;;;942559;148;27338;-75
2023/08/03 07:34:46;;;;;;;2.72;0.85;;;21.20;87.90;;;;;;942741;149;27397;-75
2023/08/03 07:37:12;;;;;;;2.55;1.00;;;21.20;87.60;;;;;;942684;148;27365;-75
2023/08/03 07:39:39;;;;;;;2.00;1.10;;;21.20;87.40;;;;;;943926;148;27349;-75
2023/08/03 07:42:06;;;;;;;1.65;1.00;;;21.20;87.10;;;;;;942657;149;27348;-75
2023/08/03 07:44:32;;;;;;;1.12;0.78;;;21.20;87.30;;;;;;945288;148;27447;-75
2023/08/03 07:46:59;;;;;;;1.95;0.68;;;21.20;87.50;;;;;;947437;149;27508;-75
2023/08/03 07:49:25;;;;;;;1.20;0.80;;;21.20;87.60;;;;;;946563;149;27364;-75
2023/08/03 07:51:52;;;;;;;1.80;1.00;;;21.20;87.60;;;;;;947022;149;27339;-76
2023/08/03 07:54:19;;;;;;;4.22;1.00;;;21.20;86.70;;;;;;947072;149;27424;-75
2023/08/03 07:56:45;;;;;;;2.42;0.80;;;21.20;86.70;;;;;;946806;149;27413;-76
2023/08/03 07:59:12;;;;;;;2.52;0.90;;;21.20;86.40;;;;;;946882;149;27458;-75
2023/08/03 08:01:38;;;;;;;2.95;0.80;;;21.20;86.00;;;;;;947008;149;27350;-75
2023/08/03 08:04:05;;;;;;;1.47;0.55;;;21.20;85.90;;;;;;946878;149;27372;-76
2023/08/03 08:06:32;;;;;;;2.27;1.02;;;21.20;86.10;;;;;;946998;149;27348;-75
2023/08/03 08:08:58;;;;;;;1.10;0.55;;;21.20;86.10;;;;;;947417;149;27348;-76
2023/08/03 08:11:25;;;;;;;2.70;0.98;;;21.20;86.20;;;;;;946611;149;27361;-75
2023/08/03 08:13:51;;;;;;;1.70;0.90;;;21.20;86.40;;;;;;946467;148;27723;-75
2023/08/03 08:16:18;;;;;;;1.92;0.90;;;21.30;86.40;;;;;;947012;149;27329;-75
2023/08/03 08:18:44;;;;;;;1.45;0.82;;;21.30;86.30;;;;;;946376;148;27364;-75
2023/08/03 08:21:11;;;;;;;1.55;0.70;;;21.30;86.00;;;;;;947109;149;27282;-75
2023/08/03 08:23:38;;;;;;;2.00;0.68;;;21.30;85.60;;;;;;946401;148;27457;-75
2023/08/03 08:26:13;;;;;;;3.77;1.30;;;21.40;85.70;;;;;;945788;149;27290;-75
2023/08/03 08:28:43;;;;;;;3.58;1.27;;;21.40;85.70;;;;;;946227;148;27460;-75
2023/08/03 08:31:09;;;;;;;1.02;0.90;;;21.50;85.40;;;;;;944995;148;27310;-75
2023/08/03 08:33:36;;;;;;;3.52;1.10;;;21.50;85.10;;;;;;947023;149;27320;-75
2023/08/03 08:36:03;;;;;;;2.22;0.88;;;21.60;85.00;;;;;;946919;149;27371;-75
2023/08/03 08:38:29;;;;;;;1.67;0.72;;;21.60;84.80;;;;;;946181;150;27456;-75
2023/08/03 08:40:56;;;;;;;1.85;0.82;;;21.60;84.70;;;;;;946109;149;27400;-75
2023/08/03 08:43:22;;;;;;;1.75;1.20;;;21.60;84.40;;;;;;945814;149;27348;-75
2023/08/03 08:45:49;;;;;;;1.10;0.85;;;21.70;84.00;;;;;;946602;149;27435;-75
2023/08/03 08:48:15;;;;;;;1.80;1.37;;;21.70;84.00;;;;;;946951;149;27958;-75
2023/08/03 08:50:43;;;;;;;0.93;0.62;;;21.70;84.10;;;;;;946872;149;27362;-75
2023/08/03 08:53:09;;;;;;;1.57;0.70;;;21.70;84.10;;;;;;946941;149;27328;-75
2023/08/03 08:55:35;;;;;;;1.95;0.90;;;21.80;83.90;;;;;;946705;149;27344;-76
2023/08/03 08:58:02;;;;;;;0.68;0.60;;;21.80;83.70;;;;;;945865;148;27325;-76
2023/08/03 09:00:28;;;;;;;1.85;0.88;;;21.80;83.50;;;;;;946191;149;27476;-76
2023/08/03 09:02:55;;;;;;;0.93;0.70;;;21.90;83.60;;;;;;946081;149;27369;-76
2023/08/03 09:05:21;;;;;;;1.45;0.70;;;21.90;84.00;;;;;;946177;149;27337;-75
2023/08/03 09:08:00;;;;;;;13.62;2.12;;;22.00;84.20;;;;;;945835;148;27316;-75
2023/08/03 09:10:27;;;;;;;3.45;0.68;;;22.00;83.50;;;;;;940552;148;27333;-76
2023/08/03 09:12:54;;;;;;;2.00;0.72;;;22.20;83.80;;;;;;945748;151;27454;-75
2023/08/03 09:15:20;;;;;;;1.47;0.62;;;22.20;83.70;;;;;;945618;148;27340;-75
2023/08/03 09:17:47;;;;;;;1.85;1.07;;;22.30;83.60;;;;;;942729;148;27384;-75
2023/08/03 09:20:28;;;;;;;1.40;0.80;;;22.30;83.20;;;;;;945925;149;27274;-75
2023/08/03 09:22:55;;;;;;;1.72;0.82;;;22.30;82.50;;;;;;945477;149;27477;-76
2023/08/03 09:25:21;;;;;;;1.80;0.75;;;22.40;82.40;;;;;;946146;149;27364;-76
2023/08/03 09:27:48;;;;;;;1.55;0.82;;;22.40;82.40;;;;;;946482;149;27324;-75
2023/08/03 09:30:14;;;;;;;2.42;0.75;;;22.40;82.40;;;;;;945885;148;27409;-76
2023/08/03 09:32:41;;;;;;;1.42;1.07;;;22.40;82.30;;;;;;946287;149;27411;-76
2023/08/03 09:35:20;;;;;;;3.02;1.45;;;22.40;82.70;;;;;;946403;149;27345;-76
2023/08/03 09:37:46;;;;;;;1.07;0.98;;;22.50;84.10;;;;;;946235;149;27437;-76
2023/08/03 09:40:13;;;;;;;1.80;0.93;;;22.60;84.20;;;;;;946466;149;27321;-76
2023/08/03 09:42:43;;;;;;;1.32;0.60;;;22.80;84.70;;;;;;946170;149;27483;-76
2023/08/03 09:45:10;;;;;;;1.17;0.72;;;22.90;85.00;;;;;;942387;149;27411;-76
2023/08/03 09:47:36;;;;;;;2.33;0.65;;;23.20;84.90;;;;;;934154;151;27372;-75
2023/08/03 09:50:02;;;;;;;2.98;0.88;;;23.30;84.10;;;;;;932646;151;27497;-76
2023/08/03 09:52:29;;;;;;;1.90;1.30;;;23.50;83.20;;;;;;932546;150;27386;-76
2023/08/03 09:54:59;;;;;;;1.75;0.80;;;23.70;82.50;;;;;;931707;151;27339;-76
2023/08/03 09:57:25;;;;;;;3.62;0.55;;;23.80;81.50;;;;;;931900;151;27375;-76
2023/08/03 09:59:53;;;;;;;1.98;0.80;;;23.90;80.70;;;;;;932710;151;27339;-76
2023/08/03 10:02:19;;;;;;;1.77;1.10;;;24.00;79.70;;;;;;932713;151;27495;-76
2023/08/03 10:04:45;;;;;;;1.72;0.85;;;24.10;79.20;;;;;;932463;151;27336;-76
2023/08/03 10:07:11;;;;;;;0.90;0.50;;;24.10;78.00;;;;;;932268;151;27428;-76
2023/08/03 10:09:38;;;;;;;2.05;0.90;;;24.10;77.40;;;;;;932957;151;27464;-76
2023/08/03 10:12:05;;;;;;;0.88;0.60;;;24.10;76.90;;;;;;934255;151;27371;-76
2023/08/03 10:14:31;;;;;;;1.22;0.98;;;24.10;76.80;;;;;;933161;151;27471;-75
2023/08/03 10:17:00;;;;;;;1.07;0.78;;;24.00;77.10;;;;;;931785;151;27383;-76
2023/08/03 10:19:24;;;;;;;0.72;0.50;;;24.00;76.40;;;;;;931831;151;27462;-76
2023/08/03 10:21:51;;;;;;;1.42;0.40;;;23.90;76.30;;;;;;933562;151;27536;-76
2023/08/03 10:24:20;;;;;;;1.82;0.50;;;23.80;77.00;;;;;;932568;151;27492;-76
2023/08/03 10:26:47;;;;;;;1.10;0.50;;;23.80;78.30;;;;;;930875;151;27583;-76
2023/08/03 10:29:13;;;;;;;2.12;1.00;;;23.80;79.30;;;;;;931868;151;27357;-76
2023/08/03 10:31:52;;;;;;;0.50;0.50;;;23.90;79.80;;;;;;933143;151;27360;-76
2023/08/03 10:34:25;;;;;;;1.15;0.62;;;24.10;79.80;;;;;;932914;150;27516;-76
2023/08/03 10:36:53;;;;;;;0.82;0.60;;;24.30;79.40;;;;;;932567;151;27383;-76
2023/08/03 10:39:18;;;;;;;0.60;0.40;;;24.50;78.90;;;;;;933092;151;27921;-76
2023/08/03 10:41:49;;;;;;;2.47;0.60;;;24.70;78.80;;;;;;927872;151;27408;-76
2023/08/03 10:44:14;;;;;;;0.62;0.40;;;24.90;77.50;;;;;;932814;151;27483;-76
2023/08/03 10:46:49;;;;;;;0.93;0.57;;;25.00;76.30;;;;;;939951;148;27487;-76
2023/08/03 10:49:28;;;;;;;1.02;0.72;;;25.10;75.00;;;;;;941644;148;27349;-76
2023/08/03 10:51:51;;;;;;;1.25;0.60;;;25.10;74.30;;;;;;940477;148;27417;-76
2023/08/03 10:54:18;;;;;;;0.53;0.40;;;25.10;74.30;;;;;;942985;148;27443;-76
2023/08/03 10:57:04;;;;;;;0.33;0.30;;;25.10;73.90;;;;;;942258;149;27318;-76
2023/08/03 10:59:30;;;;;;;0.93;0.40;;;25.10;73.90;;;;;;943052;148;27374;-76
2023/08/03 11:01:56;;;;;;;0.55;0.33;;;25.00;73.20;;;;;;942881;148;27436;-76
2023/08/03 11:04:25;;;;;;;0.80;0.37;;;25.00;73.30;;;;;;942967;148;27324;-76
2023/08/03 11:06:52;;;;;;;0.50;0.20;;;25.00;73.10;;;;;;942583;148;27459;-76
2023/08/03 11:09:19;;;;;;;0.53;0.40;;;25.00;73.40;;;;;;941950;148;27455;-76
2023/08/03 11:11:45;;;;;;;1.00;0.60;;;25.00;72.90;;;;;;941845;148;27356;-76
2023/08/03 11:14:14;;;;;;;0.62;0.40;;;25.00;73.70;;;;;;942600;148;27318;-76
2023/08/03 11:16:39;;;;;;;0.88;0.50;;;25.10;73.90;;;;;;942270;148;27467;-76
2023/08/03 11:19:05;;;;;;;0.95;0.40;;;25.20;74.20;;;;;;942954;148;27353;-76
2023/08/03 11:21:32;;;;;;;0.80;0.30;;;25.30;73.70;;;;;;943223;148;27343;-76
2023/08/03 11:23:58;;;;;;;0.33;0.20;;;25.40;73.40;;;;;;943282;148;27352;-76
2023/08/03 11:26:25;;;;;;;0.60;0.40;;;25.50;73.20;;;;;;942262;148;27311;-76
2023/08/03 11:28:51;;;;;;;0.28;0.28;;;25.60;73.20;;;;;;943247;148;27377;-76
2023/08/03 11:31:18;;;;;;;1.95;0.68;;;25.70;73.40;;;;;;942113;148;27327;-76
2023/08/03 11:33:48;;;;;;;1.00;0.30;;;25.80;73.20;;;;;;943050;148;27297;-76
2023/08/03 11:36:14;;;;;;;0.85;0.55;;;25.90;72.60;;;;;;942786;148;27346;-76
2023/08/03 11:38:41;;;;;;;0.45;0.40;;;26.00;71.80;;;;;;942952;148;27366;-76
2023/08/03 11:41:07;;;;;;;0.50;0.50;;;26.10;71.10;;;;;;942481;148;27427;-76
2023/08/03 11:43:34;;;;;;;0.30;0.30;;;26.10;70.80;;;;;;943000;148;27326;-76
2023/08/03 11:46:00;;;;;;;0.82;0.20;;;26.10;70.70;;;;;;942573;148;27355;-76
2023/08/03 11:48:27;;;;;;;0.30;0.20;;;26.20;70.40;;;;;;943835;148;27379;-76
2023/08/03 11:50:57;;;;;;;0.85;0.20;;;26.20;70.30;;;;;;946374;149;27330;-76
2023/08/03 11:53:25;;;;;;;0.30;0.30;;;26.30;70.10;;;;;;946404;148;27282;-76
2023/08/03 11:55:52;;;;;;;0.17;0.15;;;26.30;69.00;;;;;;946540;148;27412;-76
2023/08/03 11:58:24;;;;;;;0.55;0.28;;;26.30;68.70;;;;;;946598;148;27342;-76
2023/08/03 12:00:51;;;;;;;0.10;0.10;;;26.30;68.80;;;;;;946664;148;27442;-76
2023/08/03 12:03:31;;;;;;;0.35;0.20;;;26.20;68.90;;;;;;944707;148;27358;-76
2023/08/03 12:05:57;;;;;;;0.17;0.17;;;26.20;69.00;;;;;;946125;149;27465;-76
2023/08/03 12:08:23;;;;;;;0.10;0.10;;;26.20;69.10;;;;;;945958;148;27467;-76
2023/08/03 12:10:59;;;;;;;0.30;0.20;;;26.20;69.10;;;;;;946596;148;27373;-76
2023/08/03 12:13:25;;;;;;;0.10;0.10;;;26.20;69.00;;;;;;946366;148;27431;-76
2023/08/03 12:15:52;;;;;;;0.62;0.30;;;26.20;68.70;;;;;;946928;149;27329;-75
2023/08/03 12:18:18;;;;;;;0.20;0.13;;;26.20;68.50;;;;;;947106;149;27442;-76
2023/08/03 12:20:45;;;;;;;0.10;0.10;;;26.20;68.90;;;;;;946937;149;27360;-76
2023/08/03 12:23:12;;;;;;;0.80;0.30;;;26.20;69.20;;;;;;947090;149;27428;-76
2023/08/03 12:25:38;;;;;;;0.30;0.30;;;26.30;69.00;;;;;;946723;149;27428;-76
2023/08/03 12:28:05;;;;;;;0.20;0.20;;;26.40;68.40;;;;;;947044;148;27376;-76
2023/08/03 12:30:31;;;;;;;0.25;0.10;;;26.40;68.20;;;;;;947099;149;27400;-76
2023/08/03 12:32:58;;;;;;;0.10;0.10;;;26.40;68.10;;;;;;946500;149;27763;-76
2023/08/03 12:35:25;;;;;;;0.65;0.10;;;26.40;68.00;;;;;;946624;148;27369;-76
2023/08/03 12:37:51;;;;;;;0.20;0.20;;;26.40;68.00;;;;;;946794;151;27353;-76
2023/08/03 12:40:18;;;;;;;0.23;0.17;;;26.30;68.10;;;;;;947103;149;27365;-76
2023/08/03 12:42:44;;;;;;;0.40;0.40;;;26.20;67.90;;;;;;946429;149;27362;-76
2023/08/03 12:45:11;;;;;;;1.05;0.40;;;26.10;68.00;;;;;;946279;149;27356;-76